sensor_id;sensor_type;location;lat;lon;timestamp;temperature;humidity
40660;DHT22;26753;45.544;9.232;2023-04-06T00:02:24;10.40;59.10
40660;DHT22;26753;45.544;9.232;2023-04-06T00:04:50;10.80;59.20
40660;DHT22;26753;45.544;9.232;2023-04-06T00:07:15;9.50;59.00
40660;DHT22;26753;45.544;9.232;2023-04-06T00:09:41;9.50;58.90
40660;DHT22;26753;45.544;9.232;2023-04-06T00:12:06;10.60;60.10
40660;DHT22;26753;45.544;9.232;2023-04-06T00:16:58;9.80;59.80
40660;DHT22;26753;45.544;9.232;2023-04-06T00:19:23;10.30;60.40
40660;DHT22;26753;45.544;9.232;2023-04-06T00:21:49;9.10;59.70
40660;DHT22;26753;45.544;9.232;2023-04-06T00:24:14;11.40;60.90
40660;DHT22;26753;45.544;9.232;2023-04-06T00:26:40;11.70;61.80
40660;DHT22;26753;45.544;9.232;2023-04-06T00:29:06;12.30;62.10
40660;DHT22;26753;45.544;9.232;2023-04-06T00:31:31;10.20;60.90
40660;DHT22;26753;45.544;9.232;2023-04-06T00:33:57;9.90;61.00
40660;DHT22;26753;45.544;9.232;2023-04-06T00:36:23;11.90;62.50
40660;DHT22;26753;45.544;9.232;2023-04-06T00:38:48;10.90;61.80
40660;DHT22;26753;45.544;9.232;2023-04-06T00:41:14;10.70;62.60
40660;DHT22;26753;45.544;9.232;2023-04-06T00:43:39;11.40;62.80
40660;DHT22;26753;45.544;9.232;2023-04-06T00:46:05;11.30;62.20
40660;DHT22;26753;45.544;9.232;2023-04-06T00:48:31;10.00;61.00
40660;DHT22;26753;45.544;9.232;2023-04-06T00:50:57;9.30;60.50
40660;DHT22;26753;45.544;9.232;2023-04-06T00:53:22;10.40;61.50
40660;DHT22;26753;45.544;9.232;2023-04-06T00:55:48;9.80;61.20
40660;DHT22;26753;45.544;9.232;2023-04-06T00:58:13;9.30;61.00
40660;DHT22;26753;45.544;9.232;2023-04-06T01:00:40;7.60;60.30
40660;DHT22;26753;45.544;9.232;2023-04-06T01:03:05;8.30;61.10
40660;DHT22;26753;45.544;9.232;2023-04-06T01:05:33;10.40;62.40
40660;DHT22;26753;45.544;9.232;2023-04-06T01:07:59;8.30;60.90
40660;DHT22;26753;45.544;9.232;2023-04-06T01:10:25;10.60;62.30
40660;DHT22;26753;45.544;9.232;2023-04-06T01:12:50;9.00;61.70
40660;DHT22;26753;45.544;9.232;2023-04-06T01:15:16;10.00;62.40
40660;DHT22;26753;45.544;9.232;2023-04-06T01:17:42;11.00;63.10
40660;DHT22;26753;45.544;9.232;2023-04-06T01:20:07;9.60;62.30
40660;DHT22;26753;45.544;9.232;2023-04-06T01:22:33;10.10;63.30
40660;DHT22;26753;45.544;9.232;2023-04-06T01:24:58;7.90;62.60
40660;DHT22;26753;45.544;9.232;2023-04-06T01:27:24;10.00;63.90
40660;DHT22;26753;45.544;9.232;2023-04-06T01:29:54;9.60;63.80
40660;DHT22;26753;45.544;9.232;2023-04-06T01:32:19;9.20;64.00
40660;DHT22;26753;45.544;9.232;2023-04-06T01:34:46;9.70;64.60
40660;DHT22;26753;45.544;9.232;2023-04-06T01:37:11;10.10;64.80
40660;DHT22;26753;45.544;9.232;2023-04-06T01:39:37;8.90;64.00
40660;DHT22;26753;45.544;9.232;2023-04-06T01:42:02;8.00;63.60
40660;DHT22;26753;45.544;9.232;2023-04-06T01:44:28;8.30;64.10
40660;DHT22;26753;45.544;9.232;2023-04-06T01:46:55;9.50;64.70
40660;DHT22;26753;45.544;9.232;2023-04-06T01:49:22;8.00;63.80
40660;DHT22;26753;45.544;9.232;2023-04-06T01:54:13;10.00;65.20
40660;DHT22;26753;45.544;9.232;2023-04-06T01:56:39;10.40;65.50
40660;DHT22;26753;45.544;9.232;2023-04-06T01:59:06;10.20;65.50
40660;DHT22;26753;45.544;9.232;2023-04-06T02:03:57;9.00;65.10
40660;DHT22;26753;45.544;9.232;2023-04-06T02:06:23;10.30;65.60
40660;DHT22;26753;45.544;9.232;2023-04-06T02:08:48;9.30;64.90
40660;DHT22;26753;45.544;9.232;2023-04-06T02:11:14;9.80;65.20
40660;DHT22;26753;45.544;9.232;2023-04-06T02:13:40;10.30;65.40
40660;DHT22;26753;45.544;9.232;2023-04-06T02:16:05;9.90;65.60
40660;DHT22;26753;45.544;9.232;2023-04-06T02:18:31;8.40;64.60
40660;DHT22;26753;45.544;9.232;2023-04-06T02:20:56;8.30;64.60
40660;DHT22;26753;45.544;9.232;2023-04-06T02:23:22;7.60;64.00
40660;DHT22;26753;45.544;9.232;2023-04-06T02:25:48;10.10;65.30
40660;DHT22;26753;45.544;9.232;2023-04-06T02:28:13;8.60;64.70
40660;DHT22;26753;45.544;9.232;2023-04-06T02:30:39;9.30;65.10
40660;DHT22;26753;45.544;9.232;2023-04-06T02:33:05;6.60;63.70
40660;DHT22;26753;45.544;9.232;2023-04-06T02:35:31;9.70;65.50
40660;DHT22;26753;45.544;9.232;2023-04-06T02:37:56;9.70;66.00
40660;DHT22;26753;45.544;9.232;2023-04-06T02:40:22;9.20;66.10
40660;DHT22;26753;45.544;9.232;2023-04-06T02:42:51;8.10;65.80
40660;DHT22;26753;45.544;9.232;2023-04-06T02:45:17;9.60;66.90
40660;DHT22;26753;45.544;9.232;2023-04-06T02:50:08;7.60;65.90
40660;DHT22;26753;45.544;9.232;2023-04-06T02:52:34;8.20;66.10
40660;DHT22;26753;45.544;9.232;2023-04-06T02:55:00;8.80;66.50
40660;DHT22;26753;45.544;9.232;2023-04-06T02:57:26;8.50;66.50
40660;DHT22;26753;45.544;9.232;2023-04-06T02:59:51;8.90;66.60
40660;DHT22;26753;45.544;9.232;2023-04-06T03:02:17;8.30;66.40
40660;DHT22;26753;45.544;9.232;2023-04-06T03:04:42;8.00;66.00
40660;DHT22;26753;45.544;9.232;2023-04-06T03:07:08;9.50;66.90
40660;DHT22;26753;45.544;9.232;2023-04-06T03:09:36;6.30;65.30
40660;DHT22;26753;45.544;9.232;2023-04-06T03:14:30;7.20;66.10
40660;DHT22;26753;45.544;9.232;2023-04-06T03:16:56;8.20;66.90
40660;DHT22;26753;45.544;9.232;2023-04-06T03:19:22;7.30;66.30
40660;DHT22;26753;45.544;9.232;2023-04-06T03:21:47;10.00;68.20
40660;DHT22;26753;45.544;9.232;2023-04-06T03:24:16;8.20;67.50
40660;DHT22;26753;45.544;9.232;2023-04-06T03:26:41;9.40;68.10
40660;DHT22;26753;45.544;9.232;2023-04-06T03:29:07;9.00;68.50
40660;DHT22;26753;45.544;9.232;2023-04-06T03:31:33;9.20;68.70
40660;DHT22;26753;45.544;9.232;2023-04-06T03:33:59;8.80;68.70
40660;DHT22;26753;45.544;9.232;2023-04-06T03:36:24;6.10;67.40
40660;DHT22;26753;45.544;9.232;2023-04-06T03:38:51;7.20;68.40
40660;DHT22;26753;45.544;9.232;2023-04-06T03:41:19;7.00;68.30
40660;DHT22;26753;45.544;9.232;2023-04-06T03:43:45;8.10;68.90
40660;DHT22;26753;45.544;9.232;2023-04-06T03:46:10;9.10;70.20
40660;DHT22;26753;45.544;9.232;2023-04-06T03:48:38;5.50;68.00
40660;DHT22;26753;45.544;9.232;2023-04-06T03:51:04;9.00;69.90
40660;DHT22;26753;45.544;9.232;2023-04-06T03:53:30;9.00;70.00
40660;DHT22;26753;45.544;9.232;2023-04-06T03:55:55;5.80;68.20
40660;DHT22;26753;45.544;9.232;2023-04-06T03:58:21;10.00;70.60
40660;DHT22;26753;45.544;9.232;2023-04-06T04:00:47;8.30;69.60
40660;DHT22;26753;45.544;9.232;2023-04-06T04:03:12;11.00;71.00
40660;DHT22;26753;45.544;9.232;2023-04-06T04:05:38;7.10;68.90
40660;DHT22;26753;45.544;9.232;2023-04-06T04:08:04;7.00;69.30
40660;DHT22;26753;45.544;9.232;2023-04-06T04:10:30;9.60;71.40
40660;DHT22;26753;45.544;9.232;2023-04-06T04:12:55;6.80;69.10
40660;DHT22;26753;45.544;9.232;2023-04-06T04:15:21;11.00;71.50
40660;DHT22;26753;45.544;9.232;2023-04-06T04:20:14;7.90;70.20
40660;DHT22;26753;45.544;9.232;2023-04-06T04:22:43;7.80;70.10
40660;DHT22;26753;45.544;9.232;2023-04-06T04:25:09;9.50;71.00
40660;DHT22;26753;45.544;9.232;2023-04-06T04:30:00;7.30;70.00
40660;DHT22;26753;45.544;9.232;2023-04-06T04:32:26;10.90;72.20
40660;DHT22;26753;45.544;9.232;2023-04-06T04:34:53;6.30;69.40
40660;DHT22;26753;45.544;9.232;2023-04-06T04:37:18;5.60;69.00
40660;DHT22;26753;45.544;9.232;2023-04-06T04:39:44;7.50;70.10
40660;DHT22;26753;45.544;9.232;2023-04-06T04:42:10;10.90;71.50
40660;DHT22;26753;45.544;9.232;2023-04-06T04:44:36;6.10;69.40
40660;DHT22;26753;45.544;9.232;2023-04-06T04:47:01;5.90;69.20
40660;DHT22;26753;45.544;9.232;2023-04-06T04:49:27;8.70;70.60
40660;DHT22;26753;45.544;9.232;2023-04-06T04:51:52;8.90;70.70
40660;DHT22;26753;45.544;9.232;2023-04-06T04:56:44;9.10;71.70
40660;DHT22;26753;45.544;9.232;2023-04-06T04:59:10;7.30;71.40
40660;DHT22;26753;45.544;9.232;2023-04-06T05:01:36;9.90;73.00
40660;DHT22;26753;45.544;9.232;2023-04-06T05:04:01;8.90;73.00
40660;DHT22;26753;45.544;9.232;2023-04-06T05:06:27;7.40;72.90
40660;DHT22;26753;45.544;9.232;2023-04-06T05:08:53;8.50;73.90
40660;DHT22;26753;45.544;9.232;2023-04-06T05:11:19;8.90;74.70
40660;DHT22;26753;45.544;9.232;2023-04-06T05:13:45;7.30;74.00
40660;DHT22;26753;45.544;9.232;2023-04-06T05:18:36;11.10;76.50
40660;DHT22;26753;45.544;9.232;2023-04-06T05:38:03;9.30;75.60
40660;DHT22;26753;45.544;9.232;2023-04-06T05:45:20;9.30;75.30
40660;DHT22;26753;45.544;9.232;2023-04-06T05:47:46;5.60;73.20
40660;DHT22;26753;45.544;9.232;2023-04-06T05:52:38;7.90;74.90
40660;DHT22;26753;45.544;9.232;2023-04-06T05:55:03;8.00;74.50
40660;DHT22;26753;45.544;9.232;2023-04-06T05:57:29;9.00;74.60
40660;DHT22;26753;45.544;9.232;2023-04-06T05:59:55;8.40;73.40
40660;DHT22;26753;45.544;9.232;2023-04-06T06:02:21;8.90;73.80
40660;DHT22;26753;45.544;9.232;2023-04-06T06:04:47;9.60;74.60
40660;DHT22;26753;45.544;9.232;2023-04-06T06:07:13;8.20;73.80
40660;DHT22;26753;45.544;9.232;2023-04-06T06:12:05;9.90;74.30
40660;DHT22;26753;45.544;9.232;2023-04-06T06:14:31;7.90;72.50
40660;DHT22;26753;45.544;9.232;2023-04-06T06:16:56;9.50;73.10
40660;DHT22;26753;45.544;9.232;2023-04-06T06:19:22;7.80;71.80
40660;DHT22;26753;45.544;9.232;2023-04-06T06:21:48;9.30;72.60
40660;DHT22;26753;45.544;9.232;2023-04-06T06:24:13;8.50;72.20
40660;DHT22;26753;45.544;9.232;2023-04-06T06:26:39;9.70;72.50
40660;DHT22;26753;45.544;9.232;2023-04-06T06:29:05;9.90;72.10
40660;DHT22;26753;45.544;9.232;2023-04-06T06:31:31;9.20;71.70
40660;DHT22;26753;45.544;9.232;2023-04-06T06:33:57;8.90;70.70
40660;DHT22;26753;45.544;9.232;2023-04-06T06:36:22;9.20;70.00
40660;DHT22;26753;45.544;9.232;2023-04-06T06:38:48;7.70;68.30
40660;DHT22;26753;45.544;9.232;2023-04-06T06:41:14;10.60;68.90
40660;DHT22;26753;45.544;9.232;2023-04-06T06:43:39;11.00;68.20
40660;DHT22;26753;45.544;9.232;2023-04-06T06:46:05;12.80;67.80
40660;DHT22;26753;45.544;9.232;2023-04-06T06:48:31;12.40;66.90
40660;DHT22;26753;45.544;9.232;2023-04-06T06:50:56;11.50;66.00
40660;DHT22;26753;45.544;9.232;2023-04-06T06:53:23;9.40;64.30
40660;DHT22;26753;45.544;9.232;2023-04-06T06:55:48;10.20;64.00
40660;DHT22;26753;45.544;9.232;2023-04-06T06:58:14;11.60;64.70
40660;DHT22;26753;45.544;9.232;2023-04-06T07:00:40;11.80;61.00
40660;DHT22;26753;45.544;9.232;2023-04-06T07:03:06;10.60;59.70
40660;DHT22;26753;45.544;9.232;2023-04-06T07:05:31;10.70;58.70
40660;DHT22;26753;45.544;9.232;2023-04-06T07:07:57;11.90;59.20
40660;DHT22;26753;45.544;9.232;2023-04-06T07:10:23;12.90;56.80
40660;DHT22;26753;45.544;9.232;2023-04-06T07:12:49;10.60;54.80
40660;DHT22;26753;45.544;9.232;2023-04-06T07:15:14;11.50;55.20
40660;DHT22;26753;45.544;9.232;2023-04-06T07:17:40;11.60;55.50
40660;DHT22;26753;45.544;9.232;2023-04-06T07:20:10;12.60;55.80
40660;DHT22;26753;45.544;9.232;2023-04-06T07:22:36;13.60;56.50
40660;DHT22;26753;45.544;9.232;2023-04-06T07:25:02;13.60;55.70
40660;DHT22;26753;45.544;9.232;2023-04-06T07:27:28;11.90;54.00
40660;DHT22;26753;45.544;9.232;2023-04-06T07:29:53;12.30;53.80
40660;DHT22;26753;45.544;9.232;2023-04-06T07:32:19;13.10;54.50
40660;DHT22;26753;45.544;9.232;2023-04-06T07:34:45;13.60;53.90
40660;DHT22;26753;45.544;9.232;2023-04-06T07:37:12;13.70;54.20
40660;DHT22;26753;45.544;9.232;2023-04-06T07:39:38;12.40;53.10
40660;DHT22;26753;45.544;9.232;2023-04-06T07:42:03;13.40;51.90
40660;DHT22;26753;45.544;9.232;2023-04-06T07:44:29;13.30;51.20
40660;DHT22;26753;45.544;9.232;2023-04-06T07:46:55;13.20;51.40
40660;DHT22;26753;45.544;9.232;2023-04-06T07:49:21;13.80;52.30
40660;DHT22;26753;45.544;9.232;2023-04-06T07:51:48;13.20;52.20
40660;DHT22;26753;45.544;9.232;2023-04-06T07:54:13;13.30;51.30
40660;DHT22;26753;45.544;9.232;2023-04-06T07:56:39;11.90;50.90
40660;DHT22;26753;45.544;9.232;2023-04-06T07:59:05;13.60;50.70
40660;DHT22;26753;45.544;9.232;2023-04-06T08:01:33;12.40;50.00
40660;DHT22;26753;45.544;9.232;2023-04-06T08:03:59;12.90;51.00
40660;DHT22;26753;45.544;9.232;2023-04-06T08:06:28;12.60;50.30
40660;DHT22;26753;45.544;9.232;2023-04-06T08:08:54;14.00;50.90
40660;DHT22;26753;45.544;9.232;2023-04-06T08:11:19;11.50;49.80
40660;DHT22;26753;45.544;9.232;2023-04-06T08:13:45;12.10;49.10
40660;DHT22;26753;45.544;9.232;2023-04-06T08:16:11;14.40;50.30
40660;DHT22;26753;45.544;9.232;2023-04-06T08:18:36;11.50;49.00
40660;DHT22;26753;45.544;9.232;2023-04-06T08:21:02;12.20;48.90
40660;DHT22;26753;45.544;9.232;2023-04-06T08:23:27;14.60;49.30
40660;DHT22;26753;45.544;9.232;2023-04-06T08:25:55;12.60;48.20
40660;DHT22;26753;45.544;9.232;2023-04-06T08:28:21;14.00;48.40
40660;DHT22;26753;45.544;9.232;2023-04-06T08:30:47;13.90;47.90
40660;DHT22;26753;45.544;9.232;2023-04-06T08:33:12;13.80;47.40
40660;DHT22;26753;45.544;9.232;2023-04-06T08:35:38;12.90;47.20
40660;DHT22;26753;45.544;9.232;2023-04-06T08:38:04;12.90;47.70
40660;DHT22;26753;45.544;9.232;2023-04-06T08:40:30;13.10;47.70
40660;DHT22;26753;45.544;9.232;2023-04-06T08:42:56;14.30;48.40
40660;DHT22;26753;45.544;9.232;2023-04-06T08:45:22;14.40;49.10
40660;DHT22;26753;45.544;9.232;2023-04-06T08:47:48;12.70;47.80
40660;DHT22;26753;45.544;9.232;2023-04-06T08:50:15;13.50;48.10
40660;DHT22;26753;45.544;9.232;2023-04-06T08:52:42;14.00;49.30
40660;DHT22;26753;45.544;9.232;2023-04-06T08:55:08;14.30;48.90
40660;DHT22;26753;45.544;9.232;2023-04-06T08:57:34;14.50;49.00
40660;DHT22;26753;45.544;9.232;2023-04-06T09:00:01;14.30;48.90
40660;DHT22;26753;45.544;9.232;2023-04-06T09:02:27;12.70;48.00
40660;DHT22;26753;45.544;9.232;2023-04-06T09:04:52;15.40;49.40
40660;DHT22;26753;45.544;9.232;2023-04-06T09:07:18;14.60;48.70
40660;DHT22;26753;45.544;9.232;2023-04-06T09:09:44;15.20;49.30
40660;DHT22;26753;45.544;9.232;2023-04-06T09:12:23;13.70;48.50
40660;DHT22;26753;45.544;9.232;2023-04-06T09:14:48;14.00;48.00
40660;DHT22;26753;45.544;9.232;2023-04-06T09:17:24;12.30;46.80
40660;DHT22;26753;45.544;9.232;2023-04-06T09:19:50;13.60;47.40
40660;DHT22;26753;45.544;9.232;2023-04-06T09:22:16;14.90;48.10
40660;DHT22;26753;45.544;9.232;2023-04-06T09:24:43;13.90;48.00
40660;DHT22;26753;45.544;9.232;2023-04-06T09:27:09;13.90;47.20
40660;DHT22;26753;45.544;9.232;2023-04-06T09:29:34;13.50;46.40
40660;DHT22;26753;45.544;9.232;2023-04-06T09:32:09;14.00;46.70
40660;DHT22;26753;45.544;9.232;2023-04-06T09:34:38;15.70;48.20
40660;DHT22;26753;45.544;9.232;2023-04-06T09:37:13;14.40;47.10
40660;DHT22;26753;45.544;9.232;2023-04-06T09:39:39;14.90;47.90
40660;DHT22;26753;45.544;9.232;2023-04-06T09:42:05;13.40;46.80
40660;DHT22;26753;45.544;9.232;2023-04-06T09:44:31;14.70;47.40
40660;DHT22;26753;45.544;9.232;2023-04-06T09:46:56;14.90;47.70
40660;DHT22;26753;45.544;9.232;2023-04-06T09:49:22;15.10;47.50
40660;DHT22;26753;45.544;9.232;2023-04-06T09:51:58;14.50;47.20
40660;DHT22;26753;45.544;9.232;2023-04-06T09:54:24;14.70;47.10
40660;DHT22;26753;45.544;9.232;2023-04-06T09:59:37;14.90;46.70
40660;DHT22;26753;45.544;9.232;2023-04-06T10:02:04;15.60;46.90
40660;DHT22;26753;45.544;9.232;2023-04-06T10:04:41;16.40;47.00
40660;DHT22;26753;45.544;9.232;2023-04-06T10:07:09;15.50;46.60
40660;DHT22;26753;45.544;9.232;2023-04-06T10:09:37;15.60;46.70
40660;DHT22;26753;45.544;9.232;2023-04-06T10:12:06;15.70;46.60
40660;DHT22;26753;45.544;9.232;2023-04-06T10:14:35;15.80;46.30
40660;DHT22;26753;45.544;9.232;2023-04-06T10:17:03;16.00;46.30
40660;DHT22;26753;45.544;9.232;2023-04-06T10:19:31;16.10;46.70
40660;DHT22;26753;45.544;9.232;2023-04-06T10:21:57;16.20;48.30
40660;DHT22;26753;45.544;9.232;2023-04-06T10:24:24;16.30;46.60
40660;DHT22;26753;45.544;9.232;2023-04-06T10:27:00;16.40;46.10
40660;DHT22;26753;45.544;9.232;2023-04-06T10:29:26;16.30;46.70
40660;DHT22;26753;45.544;9.232;2023-04-06T10:31:52;16.50;46.30
40660;DHT22;26753;45.544;9.232;2023-04-06T10:34:18;16.20;46.00
40660;DHT22;26753;45.544;9.232;2023-04-06T10:36:43;16.30;45.80
40660;DHT22;26753;45.544;9.232;2023-04-06T10:39:09;16.30;45.70
40660;DHT22;26753;45.544;9.232;2023-04-06T10:41:42;16.60;46.40
40660;DHT22;26753;45.544;9.232;2023-04-06T10:44:07;16.80;45.90
40660;DHT22;26753;45.544;9.232;2023-04-06T10:46:33;16.60;45.40
40660;DHT22;26753;45.544;9.232;2023-04-06T10:49:11;16.80;45.70
40660;DHT22;26753;45.544;9.232;2023-04-06T10:51:38;17.00;46.20
40660;DHT22;26753;45.544;9.232;2023-04-06T10:54:05;17.30;45.40
40660;DHT22;26753;45.544;9.232;2023-04-06T10:56:31;17.60;45.60
40660;DHT22;26753;45.544;9.232;2023-04-06T10:58:59;17.50;44.50
40660;DHT22;26753;45.544;9.232;2023-04-06T11:01:26;17.40;44.50
40660;DHT22;26753;45.544;9.232;2023-04-06T11:03:55;17.50;44.70
40660;DHT22;26753;45.544;9.232;2023-04-06T11:06:24;17.70;44.70
40660;DHT22;26753;45.544;9.232;2023-04-06T11:08:50;18.00;44.80
40660;DHT22;26753;45.544;9.232;2023-04-06T11:11:17;18.20;44.50
40660;DHT22;26753;45.544;9.232;2023-04-06T11:13:44;18.40;44.70
40660;DHT22;26753;45.544;9.232;2023-04-06T11:16:45;18.40;44.50
40660;DHT22;26753;45.544;9.232;2023-04-06T11:19:07;18.30;44.20
40660;DHT22;26753;45.544;9.232;2023-04-06T11:24:12;18.30;44.20
40660;DHT22;26753;45.544;9.232;2023-04-06T11:26:42;18.60;43.90
40660;DHT22;26753;45.544;9.232;2023-04-06T11:29:09;18.80;43.40
40660;DHT22;26753;45.544;9.232;2023-04-06T11:31:39;19.10;43.80
40660;DHT22;26753;45.544;9.232;2023-04-06T11:34:08;19.70;43.50
40660;DHT22;26753;45.544;9.232;2023-04-06T11:36:34;19.60;43.30
40660;DHT22;26753;45.544;9.232;2023-04-06T11:39:02;19.70;43.60
40660;DHT22;26753;45.544;9.232;2023-04-06T11:41:28;19.60;43.40
40660;DHT22;26753;45.544;9.232;2023-04-06T11:43:55;19.40;43.40
40660;DHT22;26753;45.544;9.232;2023-04-06T11:46:24;19.20;43.30
40660;DHT22;26753;45.544;9.232;2023-04-06T11:48:51;19.20;43.70
40660;DHT22;26753;45.544;9.232;2023-04-06T11:51:23;19.20;43.50
40660;DHT22;26753;45.544;9.232;2023-04-06T11:53:49;19.40;43.60
40660;DHT22;26753;45.544;9.232;2023-04-06T11:56:28;19.50;43.50
40660;DHT22;26753;45.544;9.232;2023-04-06T11:58:54;19.70;43.20
40660;DHT22;26753;45.544;9.232;2023-04-06T12:01:19;19.60;43.20
40660;DHT22;26753;45.544;9.232;2023-04-06T12:03:45;19.70;43.30
40660;DHT22;26753;45.544;9.232;2023-04-06T12:06:11;19.70;43.50
40660;DHT22;26753;45.544;9.232;2023-04-06T12:08:37;19.40;43.50
40660;DHT22;26753;45.544;9.232;2023-04-06T12:11:02;19.90;43.30
40660;DHT22;26753;45.544;9.232;2023-04-06T12:13:28;20.30;43.10
40660;DHT22;26753;45.544;9.232;2023-04-06T12:15:53;20.40;42.80
40660;DHT22;26753;45.544;9.232;2023-04-06T12:18:22;20.50;42.30
40660;DHT22;26753;45.544;9.232;2023-04-06T12:20:51;20.80;42.40
40660;DHT22;26753;45.544;9.232;2023-04-06T12:23:19;21.80;42.40
40660;DHT22;26753;45.544;9.232;2023-04-06T12:25:45;24.80;41.40
40660;DHT22;26753;45.544;9.232;2023-04-06T12:28:11;28.60;39.50
40660;DHT22;26753;45.544;9.232;2023-04-06T12:30:37;29.70;37.20
40660;DHT22;26753;45.544;9.232;2023-04-06T12:33:02;31.20;36.80
40660;DHT22;26753;45.544;9.232;2023-04-06T12:35:34;33.50;35.80
40660;DHT22;26753;45.544;9.232;2023-04-06T12:38:00;34.30;35.10
40660;DHT22;26753;45.544;9.232;2023-04-06T12:40:26;36.00;34.60
40660;DHT22;26753;45.544;9.232;2023-04-06T12:42:52;34.60;33.40
40660;DHT22;26753;45.544;9.232;2023-04-06T12:45:17;36.30;33.20
40660;DHT22;26753;45.544;9.232;2023-04-06T12:47:43;37.70;33.20
40660;DHT22;26753;45.544;9.232;2023-04-06T12:50:08;37.80;33.10
40660;DHT22;26753;45.544;9.232;2023-04-06T12:52:34;38.40;32.50
40660;DHT22;26753;45.544;9.232;2023-04-06T12:55:01;39.00;31.90
40660;DHT22;26753;45.544;9.232;2023-04-06T12:57:27;37.90;31.90
40660;DHT22;26753;45.544;9.232;2023-04-06T12:59:52;37.70;32.10
40660;DHT22;26753;45.544;9.232;2023-04-06T13:02:18;36.90;31.80
40660;DHT22;26753;45.544;9.232;2023-04-06T13:04:45;36.50;31.40
40660;DHT22;26753;45.544;9.232;2023-04-06T13:07:11;34.10;31.60
40660;DHT22;26753;45.544;9.232;2023-04-06T13:09:39;33.90;32.00
40660;DHT22;26753;45.544;9.232;2023-04-06T13:12:05;34.90;33.40
40660;DHT22;26753;45.544;9.232;2023-04-06T13:14:30;35.70;32.10
40660;DHT22;26753;45.544;9.232;2023-04-06T13:16:57;34.50;31.30
40660;DHT22;26753;45.544;9.232;2023-04-06T13:19:22;32.00;31.80
40660;DHT22;26753;45.544;9.232;2023-04-06T13:21:48;30.70;32.80
40660;DHT22;26753;45.544;9.232;2023-04-06T13:24:13;28.60;33.90
40660;DHT22;26753;45.544;9.232;2023-04-06T13:26:39;27.80;34.00
40660;DHT22;26753;45.544;9.232;2023-04-06T13:29:05;27.60;34.70
40660;DHT22;26753;45.544;9.232;2023-04-06T13:31:30;28.00;34.60
40660;DHT22;26753;45.544;9.232;2023-04-06T13:33:56;26.80;35.40
40660;DHT22;26753;45.544;9.232;2023-04-06T13:36:22;25.90;35.10
40660;DHT22;26753;45.544;9.232;2023-04-06T13:38:47;24.90;35.40
40660;DHT22;26753;45.544;9.232;2023-04-06T13:41:20;24.40;35.70
40660;DHT22;26753;45.544;9.232;2023-04-06T13:43:46;24.20;36.10
40660;DHT22;26753;45.544;9.232;2023-04-06T13:46:11;23.80;36.50
40660;DHT22;26753;45.544;9.232;2023-04-06T13:48:37;24.30;36.80
40660;DHT22;26753;45.544;9.232;2023-04-06T13:51:09;24.90;36.30
40660;DHT22;26753;45.544;9.232;2023-04-06T13:53:35;25.70;36.20
40660;DHT22;26753;45.544;9.232;2023-04-06T13:56:00;26.60;35.20
40660;DHT22;26753;45.544;9.232;2023-04-06T13:58:26;27.40;35.20
40660;DHT22;26753;45.544;9.232;2023-04-06T14:00:55;27.50;35.30
40660;DHT22;26753;45.544;9.232;2023-04-06T14:03:20;29.80;35.10
40660;DHT22;26753;45.544;9.232;2023-04-06T14:05:46;30.70;34.60
40660;DHT22;26753;45.544;9.232;2023-04-06T14:08:11;30.90;34.10
40660;DHT22;26753;45.544;9.232;2023-04-06T14:10:40;30.40;34.20
40660;DHT22;26753;45.544;9.232;2023-04-06T14:13:07;29.90;33.60
40660;DHT22;26753;45.544;9.232;2023-04-06T14:15:32;27.90;33.80
40660;DHT22;26753;45.544;9.232;2023-04-06T14:17:58;26.90;34.50
40660;DHT22;26753;45.544;9.232;2023-04-06T14:20:24;27.00;34.90
40660;DHT22;26753;45.544;9.232;2023-04-06T14:22:50;26.70;35.10
40660;DHT22;26753;45.544;9.232;2023-04-06T14:25:17;27.00;34.90
40660;DHT22;26753;45.544;9.232;2023-04-06T14:27:43;26.70;34.30
40660;DHT22;26753;45.544;9.232;2023-04-06T14:30:09;26.80;34.40
40660;DHT22;26753;45.544;9.232;2023-04-06T14:32:35;28.20;34.40
40660;DHT22;26753;45.544;9.232;2023-04-06T14:35:01;30.00;34.40
40660;DHT22;26753;45.544;9.232;2023-04-06T14:37:27;32.20;34.10
40660;DHT22;26753;45.544;9.232;2023-04-06T14:39:52;33.80;32.80
40660;DHT22;26753;45.544;9.232;2023-04-06T14:42:18;34.80;33.10
40660;DHT22;26753;45.544;9.232;2023-04-06T14:44:43;35.20;32.80
40660;DHT22;26753;45.544;9.232;2023-04-06T14:47:10;34.30;31.90
40660;DHT22;26753;45.544;9.232;2023-04-06T14:49:36;32.40;32.00
40660;DHT22;26753;45.544;9.232;2023-04-06T14:52:01;32.40;33.10
40660;DHT22;26753;45.544;9.232;2023-04-06T14:54:27;31.70;32.40
40660;DHT22;26753;45.544;9.232;2023-04-06T14:56:53;30.10;32.40
40660;DHT22;26753;45.544;9.232;2023-04-06T14:59:18;29.50;32.80
40660;DHT22;26753;45.544;9.232;2023-04-06T15:01:44;28.30;32.70
40660;DHT22;26753;45.544;9.232;2023-04-06T15:04:09;29.90;33.00
40660;DHT22;26753;45.544;9.232;2023-04-06T15:06:35;30.70;32.50
40660;DHT22;26753;45.544;9.232;2023-04-06T15:09:00;31.20;32.40
40660;DHT22;26753;45.544;9.232;2023-04-06T15:11:26;30.60;32.00
40660;DHT22;26753;45.544;9.232;2023-04-06T15:13:51;30.50;32.20
40660;DHT22;26753;45.544;9.232;2023-04-06T15:16:17;29.30;31.80
40660;DHT22;26753;45.544;9.232;2023-04-06T15:18:42;28.00;32.50
40660;DHT22;26753;45.544;9.232;2023-04-06T15:21:08;27.40;33.20
40660;DHT22;26753;45.544;9.232;2023-04-06T15:23:33;26.20;33.50
40660;DHT22;26753;45.544;9.232;2023-04-06T15:26:00;24.90;34.20
40660;DHT22;26753;45.544;9.232;2023-04-06T15:28:25;24.50;34.90
40660;DHT22;26753;45.544;9.232;2023-04-06T15:30:51;24.40;35.30
40660;DHT22;26753;45.544;9.232;2023-04-06T15:33:16;23.80;35.40
40660;DHT22;26753;45.544;9.232;2023-04-06T15:35:42;23.40;35.80
40660;DHT22;26753;45.544;9.232;2023-04-06T15:38:08;22.80;36.50
40660;DHT22;26753;45.544;9.232;2023-04-06T15:40:41;22.60;36.90
40660;DHT22;26753;45.544;9.232;2023-04-06T15:43:07;22.20;37.30
40660;DHT22;26753;45.544;9.232;2023-04-06T15:45:32;22.10;37.60
40660;DHT22;26753;45.544;9.232;2023-04-06T15:47:58;21.80;37.90
40660;DHT22;26753;45.544;9.232;2023-04-06T15:50:23;21.60;38.00
40660;DHT22;26753;45.544;9.232;2023-04-06T15:52:49;21.20;38.10
40660;DHT22;26753;45.544;9.232;2023-04-06T15:55:15;20.90;38.30
40660;DHT22;26753;45.544;9.232;2023-04-06T15:57:40;20.50;38.60
40660;DHT22;26753;45.544;9.232;2023-04-06T16:00:06;20.40;39.30
40660;DHT22;26753;45.544;9.232;2023-04-06T16:02:33;20.10;39.70
40660;DHT22;26753;45.544;9.232;2023-04-06T16:04:58;19.90;40.10
40660;DHT22;26753;45.544;9.232;2023-04-06T16:07:28;19.70;40.00
40660;DHT22;26753;45.544;9.232;2023-04-06T16:09:53;19.50;40.30
40660;DHT22;26753;45.544;9.232;2023-04-06T16:12:20;19.40;40.40
40660;DHT22;26753;45.544;9.232;2023-04-06T16:14:45;19.00;41.00
40660;DHT22;26753;45.544;9.232;2023-04-06T16:17:14;19.10;41.30
40660;DHT22;26753;45.544;9.232;2023-04-06T16:19:40;19.10;41.30
40660;DHT22;26753;45.544;9.232;2023-04-06T16:22:06;18.80;41.20
40660;DHT22;26753;45.544;9.232;2023-04-06T16:24:34;18.60;41.40